Main page
METAR-TAF:

METAR-TAF

Airports :

Sharjah, United Arab Emirates

Sharjah International Airport

latitude: 25-20N, longitude: 055-31E, elevation: 35 m

Current weather observation

The report was made 22 minutes ago, at 20:00 UTC
Wind 3 kt from the South/Southeast
Temperature 17°C
Humidity 77%
Pressure 1022 hPa
Visibility 10 km or more
Few clouds at a height of 3500 ft

METAR: OMSJ 182000Z 16003KT 9999 FEW035 17/13 Q1022

Time: 00:22 (20:22 UTC)

Forecast

The report was made 3 hours and 19 minutes ago, at 17:03 UTC
Forecast valid from 18 at 18 UTC to 20 at 00 UTC
Wind 5 kt from the East
Visibility 10 km or more
Few clouds at a height of 4000 ft
Becoming
from 19 at 07 UTC to 19 at 09 UTC
Wind 10 kt from the North/Northwest
Becoming
from 19 at 15 UTC to 19 at 17 UTC
Wind 5 kt from the East/Northeast

TAF: OMSJ 181703Z 1818/2000 08005KT 9999 FEW040 BECMG 1907/1909 34010KT BECMG 1915/1917 07005KT

Weather observations and forecasts of more than 4000 airports (METAR and TAF reports).

The available stations are represented by yellow and red dots on the map.

Hover mouse over dot to see the name of the station.

Then click to see weather observations and forecasts.

To change the map : click on the green buttons with a black cross to zoom in, on the green button with a dash to zoom out, or on the green arrows for adjacent maps.


METAR-TAF: